createdAt,value
2023-03-22T00:00:15.210Z,100.00
2023-03-22T00:02:41.999Z,100.00
2023-03-22T00:05:09.608Z,100.00
2023-03-22T00:07:37.749Z,100.00
2023-03-22T00:10:05.580Z,100.00
2023-03-22T00:12:32.141Z,100.00
2023-03-22T00:15:00.169Z,100.00
2023-03-22T00:17:26.873Z,100.00
2023-03-22T00:19:54.633Z,100.00
2023-03-22T00:22:21.866Z,100.00
2023-03-22T00:24:48.514Z,100.00
2023-03-22T00:27:15.862Z,100.00
2023-03-22T00:29:42.766Z,100.00
2023-03-22T00:32:09.397Z,100.00
2023-03-22T00:34:36.238Z,100.00
2023-03-22T00:37:02.839Z,100.00
2023-03-22T00:39:29.490Z,100.00
2023-03-22T00:41:56.270Z,100.00
2023-03-22T00:44:22.886Z,100.00
2023-03-22T00:46:49.491Z,100.00
2023-03-22T00:49:16.138Z,100.00
2023-03-22T00:51:42.707Z,100.00
2023-03-22T00:54:09.474Z,100.00
2023-03-22T00:56:37.633Z,100.00
2023-03-22T00:59:04.768Z,100.00
2023-03-22T01:01:31.644Z,100.00
2023-03-22T01:03:58.351Z,100.00
2023-03-22T01:06:25.224Z,100.00
2023-03-22T01:08:55.082Z,100.00
2023-03-22T01:11:21.683Z,100.00
2023-03-22T01:13:48.322Z,100.00
2023-03-22T01:16:15.716Z,100.00
2023-03-22T01:18:42.417Z,100.00
2023-03-22T01:21:09.762Z,100.00
2023-03-22T01:23:36.862Z,100.00
2023-03-22T01:26:04.656Z,100.00
2023-03-22T01:28:31.414Z,100.00
2023-03-22T01:31:02.621Z,100.00
2023-03-22T01:33:30.947Z,100.00
2023-03-22T01:35:57.613Z,100.00
2023-03-22T01:38:24.223Z,100.00
2023-03-22T01:40:51.066Z,100.00
2023-03-22T01:43:18.003Z,100.00
2023-03-22T01:45:48.313Z,100.00
2023-03-22T01:48:37.668Z,100.00
2023-03-22T01:51:07.230Z,100.00
2023-03-22T01:53:39.335Z,100.00
2023-03-22T01:56:06.395Z,100.00
2023-03-22T01:58:36.426Z,100.00
2023-03-22T02:01:04.060Z,100.00
2023-03-22T02:03:41.901Z,100.00
2023-03-22T02:06:08.694Z,100.00
2023-03-22T02:08:35.311Z,100.00
2023-03-22T02:11:03.734Z,100.00
2023-03-22T02:13:48.023Z,100.00
2023-03-22T02:16:32.986Z,100.00
2023-03-22T02:19:31.918Z,100.00
2023-03-22T02:22:14.533Z,100.00
2023-03-22T02:25:15.428Z,100.00
2023-03-22T02:27:53.196Z,100.00
2023-03-22T02:30:56.788Z,100.00
2023-03-22T02:34:06.061Z,100.00
2023-03-22T02:36:42.678Z,100.00
2023-03-22T02:39:15.492Z,100.00
2023-03-22T02:42:08.239Z,100.00
2023-03-22T02:44:42.132Z,100.00
2023-03-22T02:47:20.586Z,100.00
2023-03-22T02:49:56.290Z,100.00
2023-03-22T02:52:46.541Z,100.00
2023-03-22T02:55:34.832Z,100.00
2023-03-22T02:58:06.828Z,100.00
2023-03-22T03:00:35.824Z,100.00
2023-03-22T03:03:11.493Z,100.00
2023-03-22T03:05:46.778Z,100.00
2023-03-22T03:08:15.937Z,100.00
2023-03-22T03:10:44.064Z,100.00
2023-03-22T03:13:17.928Z,100.00
2023-03-22T03:15:48.773Z,100.00
2023-03-22T03:18:24.561Z,100.00
2023-03-22T03:20:54.499Z,100.00
2023-03-22T03:23:24.483Z,100.00
2023-03-22T03:26:28.688Z,100.00
2023-03-22T03:29:31.056Z,100.00
2023-03-22T03:32:03.312Z,100.00
2023-03-22T03:34:36.227Z,100.00
2023-03-22T03:37:19.927Z,100.00
2023-03-22T03:40:10.825Z,100.00
2023-03-22T03:42:41.953Z,100.00
2023-03-22T03:45:09.623Z,100.00
2023-03-22T03:47:37.005Z,100.00
2023-03-22T03:50:06.352Z,100.00
2023-03-22T03:52:32.957Z,100.00
2023-03-22T03:54:59.930Z,100.00
2023-03-22T03:57:26.486Z,100.00
2023-03-22T03:59:53.028Z,100.00
2023-03-22T04:02:19.693Z,100.00
2023-03-22T04:04:46.632Z,100.00
2023-03-22T04:07:13.358Z,100.00
2023-03-22T04:09:41.260Z,100.00
2023-03-22T04:12:09.794Z,100.00
2023-03-22T04:14:36.376Z,100.00
2023-03-22T04:17:03.491Z,100.00
2023-03-22T04:19:31.229Z,100.00
2023-03-22T04:21:58.006Z,100.00
2023-03-22T04:24:24.568Z,100.00
2023-03-22T04:26:52.438Z,100.00
2023-03-22T04:29:19.139Z,100.00
2023-03-22T04:31:45.800Z,100.00
2023-03-22T04:34:12.358Z,100.00
2023-03-22T04:36:41.907Z,100.00
2023-03-22T04:39:11.474Z,100.00
2023-03-22T04:41:38.276Z,100.00
2023-03-22T04:44:06.622Z,100.00
2023-03-22T04:46:35.970Z,100.00
2023-03-22T04:49:03.532Z,100.00
2023-03-22T04:51:32.038Z,100.00
2023-03-22T04:53:59.050Z,100.00
2023-03-22T04:56:26.122Z,100.00
2023-03-22T04:58:53.249Z,100.00
2023-03-22T05:01:19.891Z,100.00
2023-03-22T05:03:47.603Z,100.00
2023-03-22T05:06:15.263Z,100.00
2023-03-22T05:08:42.601Z,100.00
2023-03-22T05:11:14.924Z,100.00
2023-03-22T05:13:41.491Z,100.00
2023-03-22T05:16:09.548Z,100.00
2023-03-22T05:18:38.062Z,100.00
2023-03-22T05:21:06.826Z,100.00
2023-03-22T05:23:33.458Z,100.00
2023-03-22T05:26:01.716Z,100.00
2023-03-22T05:28:28.678Z,100.00
2023-03-22T05:30:57.090Z,100.00
2023-03-22T05:33:23.964Z,100.00
2023-03-22T05:35:51.303Z,100.00
2023-03-22T05:38:18.324Z,100.00
2023-03-22T05:40:45.230Z,100.00
2023-03-22T05:43:12.114Z,100.00
2023-03-22T05:45:38.836Z,100.00
2023-03-22T05:48:05.758Z,100.00
2023-03-22T05:50:33.265Z,100.00
2023-03-22T05:53:00.149Z,100.00
2023-03-22T05:55:27.189Z,100.00
2023-03-22T05:57:54.809Z,100.00
2023-03-22T06:00:21.842Z,100.00
2023-03-22T06:02:49.865Z,100.00
2023-03-22T06:05:17.561Z,100.00
2023-03-22T06:07:44.778Z,100.00
2023-03-22T06:10:13.414Z,100.00
2023-03-22T06:12:40.476Z,100.00
2023-03-22T06:15:08.311Z,100.00
2023-03-22T06:17:34.994Z,100.00
2023-03-22T06:20:01.590Z,100.00
2023-03-22T06:22:30.607Z,100.00
2023-03-22T06:24:57.210Z,100.00
2023-03-22T06:27:23.765Z,100.00
2023-03-22T06:29:54.637Z,100.00
2023-03-22T06:32:26.637Z,96.32
2023-03-22T06:34:56.614Z,85.05
2023-03-22T06:37:23.589Z,68.37
2023-03-22T06:39:51.807Z,69.37
2023-03-22T06:42:18.853Z,62.60
2023-03-22T06:44:45.474Z,59.72
2023-03-22T06:47:12.772Z,62.74
2023-03-22T06:49:40.057Z,69.15
2023-03-22T06:52:07.253Z,67.85
2023-03-22T06:54:34.222Z,62.68
2023-03-22T06:57:00.824Z,59.56
2023-03-22T06:59:27.748Z,50.57
2023-03-22T07:01:54.320Z,57.31
2023-03-22T07:04:21.181Z,47.13
2023-03-22T07:06:48.033Z,43.41
2023-03-22T07:09:14.612Z,41.61
2023-03-22T07:11:41.253Z,38.76
2023-03-22T07:14:07.920Z,42.30
2023-03-22T07:16:34.519Z,37.69
2023-03-22T07:19:01.447Z,38.40
2023-03-22T07:21:28.278Z,37.11
2023-03-22T07:23:55.487Z,40.49
2023-03-22T07:26:22.117Z,39.53
2023-03-22T07:28:48.693Z,43.67
2023-03-22T07:31:15.674Z,50.53
2023-03-22T07:33:42.360Z,47.67
2023-03-22T07:36:10.342Z,44.33
2023-03-22T07:38:37.380Z,45.12
2023-03-22T07:41:04.426Z,43.28
2023-03-22T07:43:31.009Z,47.29
2023-03-22T07:45:57.798Z,48.57
2023-03-22T07:48:24.599Z,47.54
2023-03-22T07:50:55.394Z,45.41
2023-03-22T07:53:22.049Z,50.21
2023-03-22T07:55:48.750Z,54.29
2023-03-22T07:58:15.399Z,46.36
2023-03-22T08:00:42.031Z,43.68
2023-03-22T08:03:12.301Z,45.43
2023-03-22T08:05:43.099Z,46.37
2023-03-22T08:08:10.693Z,49.26
2023-03-22T08:10:38.404Z,47.40
2023-03-22T08:13:05.205Z,44.59
2023-03-22T08:15:31.868Z,45.27
2023-03-22T08:17:58.657Z,46.63
2023-03-22T08:20:28.500Z,42.94
2023-03-22T08:22:55.379Z,41.45
2023-03-22T08:25:22.280Z,42.49
2023-03-22T08:27:48.935Z,39.72
2023-03-22T08:30:16.070Z,40.88
2023-03-22T08:32:42.743Z,43.23
2023-03-22T08:35:10.056Z,44.04
2023-03-22T08:37:36.645Z,41.96
2023-03-22T08:40:06.622Z,42.18
2023-03-22T08:42:33.264Z,41.78
2023-03-22T08:44:59.823Z,40.63
2023-03-22T08:47:26.461Z,40.57
2023-03-22T08:49:53.066Z,40.47
2023-03-22T08:52:19.719Z,39.16
2023-03-22T08:54:46.651Z,40.52
2023-03-22T08:57:14.367Z,40.60
2023-03-22T08:59:40.978Z,42.89
2023-03-22T09:02:08.572Z,38.87
2023-03-22T09:04:35.384Z,38.07
2023-03-22T09:07:02.042Z,37.92
2023-03-22T09:09:28.652Z,39.34
2023-03-22T09:11:55.327Z,37.58
2023-03-22T09:14:21.956Z,37.97
2023-03-22T09:16:48.530Z,37.66
2023-03-22T09:19:15.501Z,38.54
2023-03-22T09:21:42.778Z,37.33
2023-03-22T09:24:09.504Z,39.52
2023-03-22T09:26:37.015Z,40.56
2023-03-22T09:29:03.756Z,37.80
2023-03-22T09:31:30.425Z,37.69
2023-03-22T09:33:58.779Z,37.55
2023-03-22T09:36:25.611Z,37.61
2023-03-22T09:38:52.310Z,39.44
2023-03-22T09:41:25.370Z,40.00
2023-03-22T09:43:57.086Z,36.53
2023-03-22T09:46:34.383Z,33.40
2023-03-22T09:49:06.125Z,35.59
2023-03-22T09:51:42.029Z,35.40
2023-03-22T09:54:19.582Z,34.32
2023-03-22T09:56:53.448Z,33.58
2023-03-22T09:59:32.850Z,32.71
2023-03-22T10:02:03.010Z,32.43
2023-03-22T10:04:44.851Z,28.63
2023-03-22T10:07:35.909Z,27.60
2023-03-22T10:10:18.890Z,29.40
2023-03-22T10:13:05.390Z,31.51
2023-03-22T10:15:38.972Z,30.85
2023-03-22T10:18:11.684Z,31.46
2023-03-22T10:20:51.248Z,31.18
2023-03-22T10:23:24.561Z,32.88
2023-03-22T10:25:53.021Z,34.53
2023-03-22T10:28:28.884Z,31.32
2023-03-22T10:30:57.194Z,32.25
2023-03-22T10:33:40.323Z,33.46
2023-03-22T10:36:13.853Z,35.09
2023-03-22T10:38:50.706Z,34.20
2023-03-22T10:41:20.940Z,34.16
2023-03-22T10:43:52.234Z,34.92
2023-03-22T10:46:23.255Z,34.72
2023-03-22T10:48:52.513Z,32.16
2023-03-22T10:51:29.693Z,31.75
2023-03-22T10:53:58.236Z,32.38
2023-03-22T10:56:25.496Z,33.43
2023-03-22T10:58:52.801Z,35.17
2023-03-22T11:01:29.195Z,35.01
2023-03-22T11:04:16.559Z,36.43
2023-03-22T11:06:53.342Z,37.46
2023-03-22T11:09:23.643Z,41.07
2023-03-22T11:11:59.098Z,40.75
2023-03-22T11:14:35.661Z,40.71
2023-03-22T11:17:10.122Z,41.84
2023-03-22T11:19:39.931Z,42.24
2023-03-22T11:22:25.182Z,41.70
2023-03-22T11:24:52.629Z,44.81
2023-03-22T11:27:33.000Z,46.14
2023-03-22T11:30:21.017Z,45.30
2023-03-22T11:32:47.851Z,49.28
2023-03-22T11:35:17.767Z,46.17
2023-03-22T11:37:50.409Z,46.15
2023-03-22T11:40:20.733Z,46.39
2023-03-22T11:42:52.181Z,48.91
2023-03-22T11:45:32.396Z,49.96
2023-03-22T11:48:06.233Z,50.53
2023-03-22T11:50:37.293Z,51.73
2023-03-22T11:53:07.331Z,53.25
2023-03-22T11:55:35.908Z,54.50
2023-03-22T11:58:04.393Z,52.94
2023-03-22T12:00:37.634Z,55.06
2023-03-22T12:03:16.319Z,55.21
2023-03-22T12:05:47.576Z,55.61
2023-03-22T12:08:35.641Z,57.77
2023-03-22T12:11:06.989Z,57.85
2023-03-22T12:13:51.530Z,57.75
2023-03-22T12:16:25.111Z,59.20
2023-03-22T12:19:14.343Z,59.41
2023-03-22T12:21:41.459Z,59.84
2023-03-22T12:24:28.941Z,61.58
2023-03-22T12:27:00.146Z,60.34
2023-03-22T12:29:28.269Z,59.67
2023-03-22T12:32:12.229Z,59.36
2023-03-22T12:34:43.616Z,58.66
2023-03-22T12:37:18.045Z,59.84
2023-03-22T12:39:59.971Z,58.34
2023-03-22T12:42:40.586Z,57.31
2023-03-22T12:45:21.002Z,56.99
2023-03-22T12:47:53.878Z,53.59
2023-03-22T12:50:24.465Z,54.58
2023-03-22T12:52:57.057Z,51.74
2023-03-22T12:55:31.317Z,51.66
2023-03-22T12:57:58.585Z,49.98
2023-03-22T13:00:35.490Z,50.67
2023-03-22T13:03:20.207Z,49.95
2023-03-22T13:06:00.827Z,46.24
2023-03-22T13:09:06.104Z,46.71
2023-03-22T13:11:32.765Z,46.19
2023-03-22T13:13:59.320Z,46.13
2023-03-22T13:16:51.923Z,49.50
2023-03-22T13:19:29.599Z,49.64
2023-03-22T13:22:17.894Z,48.47
2023-03-22T13:24:58.969Z,44.00
2023-03-22T13:27:56.873Z,46.18
2023-03-22T13:30:55.294Z,42.73
2023-03-22T13:33:29.415Z,41.86
2023-03-22T13:35:59.497Z,41.18
2023-03-22T13:38:48.908Z,42.44
2023-03-22T13:41:28.090Z,42.56
2023-03-22T13:44:00.486Z,41.13
2023-03-22T13:46:43.712Z,43.35
2023-03-22T13:49:44.694Z,39.68
2023-03-22T13:52:43.874Z,39.49
2023-03-22T13:55:37.213Z,42.38
2023-03-22T13:58:05.988Z,40.28
2023-03-22T14:00:32.510Z,39.77
2023-03-22T14:03:02.411Z,39.69
2023-03-22T14:05:32.222Z,38.07
2023-03-22T14:08:00.261Z,37.02
2023-03-22T14:10:36.796Z,37.99
2023-03-22T14:13:19.257Z,39.25
2023-03-22T14:15:50.917Z,38.01
2023-03-22T14:18:26.717Z,38.40
2023-03-22T14:20:59.105Z,38.44
